HESN

Aswan International Airport

Aswan, Egypt
METAR HESN 152200Z 34004KT CAVOK 31/05 Q1007 NOSIG
Observed Flight Rules
Aug-15 @ 22:00 UTC (26 minutes ago) Visual Flight Rules
Wind Visibility Clouds
340° at 4 knots 10,000+ meters
  • Clear skies
Temperatures Readings
Current 31°C / 88°F
Dewpoint 5°C / 41°F
Humidity 19%
Altimeter 29.73" Hg
Pressure 1007 hPa
Elevation 194
METAR HESN 152200Z 34004KT CAVOK 31/05 Q1007 NOSIG
Observed Flight Rules
Aug-15 @ 22:00 UTC
(26 minutes ago)
VFR
Wind Visibility
340° at 4 knots 10,000+ meters
Clouds
  • Clear skies
Temperature Dewpoint
31°C / 88°F 5°C / 41°F
Humidity Altimeter Pressure
19% 29.73" Hg 1007 hPa